createdAt,value
2023-03-13T00:02:23.648Z,5.78
2023-03-13T00:05:09.747Z,5.97
2023-03-13T00:07:55.755Z,5.60
2023-03-13T00:10:42.443Z,5.90
2023-03-13T00:13:28.937Z,5.40
2023-03-13T00:16:16.735Z,5.13
2023-03-13T00:19:05.534Z,5.63
2023-03-13T00:21:51.577Z,6.43
2023-03-13T00:24:37.490Z,6.50
2023-03-13T00:27:23.475Z,6.07
2023-03-13T00:30:10.857Z,6.35
2023-03-13T00:32:56.936Z,6.40
2023-03-13T00:35:42.621Z,6.47
2023-03-13T00:38:32.095Z,6.70
2023-03-13T00:41:20.409Z,7.43
2023-03-13T00:44:07.038Z,7.78
2023-03-13T00:46:52.995Z,7.45
2023-03-13T00:49:38.760Z,7.60
2023-03-13T00:52:28.147Z,8.02
2023-03-13T00:55:14.106Z,8.93
2023-03-13T00:58:00.200Z,7.47
2023-03-13T01:00:46.063Z,7.88
2023-03-13T01:03:32.013Z,7.88
2023-03-13T01:06:22.745Z,7.28
2023-03-13T01:09:11.806Z,7.60
2023-03-13T01:11:57.870Z,7.13
2023-03-13T01:14:43.582Z,7.68
2023-03-13T01:17:30.037Z,6.75
2023-03-13T01:20:16.041Z,6.53
2023-03-13T01:23:02.309Z,6.70
2023-03-13T01:25:48.520Z,6.82
2023-03-13T01:28:35.355Z,6.20
2023-03-13T01:31:33.056Z,6.43
2023-03-13T01:34:19.638Z,6.32
2023-03-13T01:37:05.421Z,5.68
2023-03-13T01:39:51.308Z,5.82
2023-03-13T01:42:57.891Z,5.80
2023-03-13T01:46:05.961Z,6.07
2023-03-13T01:49:11.169Z,6.07
2023-03-13T01:52:20.085Z,6.03
2023-03-13T01:55:13.847Z,6.10
2023-03-13T01:58:01.996Z,6.85
2023-03-13T02:00:48.959Z,5.32
2023-03-13T02:03:35.782Z,5.97
2023-03-13T02:06:21.978Z,5.80
2023-03-13T02:09:12.739Z,5.80
2023-03-13T02:12:09.925Z,5.38
2023-03-13T02:14:56.810Z,5.60
2023-03-13T02:17:42.895Z,5.72
2023-03-13T02:20:29.011Z,5.32
2023-03-13T02:23:20.366Z,5.22
2023-03-13T02:26:06.915Z,5.43
2023-03-13T02:28:53.691Z,5.43
2023-03-13T02:31:40.025Z,5.40
2023-03-13T02:34:29.508Z,5.57
2023-03-13T02:37:17.806Z,5.25
2023-03-13T02:40:09.680Z,5.20
2023-03-13T02:42:56.943Z,4.88
2023-03-13T02:45:43.457Z,4.63
2023-03-13T02:48:41.923Z,5.10
2023-03-13T02:51:35.708Z,5.88
2023-03-13T02:54:25.003Z,5.10
2023-03-13T02:57:11.099Z,4.43
2023-03-13T02:59:57.200Z,5.13
2023-03-13T03:02:44.278Z,5.00
2023-03-13T03:05:30.261Z,4.35
2023-03-13T03:08:16.894Z,4.57
2023-03-13T03:11:03.057Z,5.28
2023-03-13T03:13:48.945Z,4.43
2023-03-13T03:16:36.230Z,4.28
2023-03-13T03:19:24.707Z,4.28
2023-03-13T03:22:10.724Z,4.43
2023-03-13T03:24:56.556Z,3.95
2023-03-13T03:27:43.383Z,4.22
2023-03-13T03:30:29.082Z,4.20
2023-03-13T03:33:14.841Z,4.40
2023-03-13T03:36:02.238Z,4.32
2023-03-13T03:38:49.600Z,4.47
2023-03-13T03:41:38.496Z,4.93
2023-03-13T03:44:25.255Z,4.30
2023-03-13T03:47:17.312Z,4.95
2023-03-13T03:50:07.738Z,4.32
2023-03-13T03:53:01.757Z,4.47
2023-03-13T03:55:47.594Z,4.97
2023-03-13T03:58:33.403Z,4.40
2023-03-13T04:01:39.834Z,4.82
2023-03-13T04:04:25.764Z,5.00
2023-03-13T04:07:18.734Z,4.88
2023-03-13T04:10:05.271Z,5.47
2023-03-13T04:12:57.298Z,5.30
2023-03-13T04:15:43.862Z,5.30
2023-03-13T04:18:30.926Z,5.28
2023-03-13T04:21:16.670Z,5.15
2023-03-13T04:24:07.847Z,5.35
2023-03-13T04:26:58.572Z,5.68
2023-03-13T04:29:45.388Z,5.85
2023-03-13T04:36:19.738Z,5.25
2023-03-13T04:39:28.706Z,5.32
2023-03-13T04:42:29.716Z,6.40
2023-03-13T04:45:28.190Z,5.88
2023-03-13T04:48:14.658Z,5.40
2023-03-13T04:51:23.676Z,5.85
2023-03-13T04:54:29.874Z,5.20
2023-03-13T04:57:34.421Z,6.50
2023-03-13T05:00:34.930Z,7.22
2023-03-13T05:03:39.888Z,7.18
2023-03-13T05:06:48.350Z,7.60
2023-03-13T05:10:00.655Z,7.55
2023-03-13T05:12:52.800Z,9.98
2023-03-13T05:15:47.849Z,11.68
2023-03-13T05:18:55.072Z,14.70
2023-03-13T05:21:53.997Z,15.80
2023-03-13T05:25:06.326Z,15.25
2023-03-13T05:28:10.826Z,16.20
2023-03-13T05:34:18.633Z,15.55
2023-03-13T05:37:27.716Z,15.13
2023-03-13T05:40:49.256Z,13.05
2023-03-13T05:44:02.724Z,13.18
2023-03-13T05:47:07.421Z,14.57
2023-03-13T05:50:03.475Z,13.25
2023-03-13T05:53:13.064Z,14.23
2023-03-13T05:56:10.661Z,14.50
2023-03-13T05:59:19.568Z,16.13
2023-03-13T06:02:32.113Z,16.35
2023-03-13T06:05:19.034Z,18.55
2023-03-13T06:08:06.021Z,13.93
2023-03-13T06:10:51.711Z,14.98
2023-03-13T06:13:37.978Z,15.13
2023-03-13T06:16:50.690Z,12.93
2023-03-13T06:19:40.171Z,9.77
2023-03-13T06:22:26.254Z,10.70
2023-03-13T06:25:11.893Z,12.15
2023-03-13T06:27:57.835Z,12.52
2023-03-13T06:30:43.927Z,14.68
2023-03-13T06:33:31.101Z,19.58
2023-03-13T06:36:16.839Z,24.05
2023-03-13T06:39:03.307Z,22.92
2023-03-13T06:41:49.246Z,21.23
2023-03-13T06:44:34.976Z,18.00
2023-03-13T06:47:20.727Z,19.63
2023-03-13T06:50:06.985Z,16.40
2023-03-13T06:52:53.211Z,19.05
2023-03-13T06:55:39.107Z,20.63
2023-03-13T06:58:32.085Z,19.05
2023-03-13T07:01:18.702Z,19.70
2023-03-13T07:04:04.977Z,22.98
2023-03-13T07:06:51.910Z,23.23
2023-03-13T07:09:38.042Z,19.50
2023-03-13T07:12:24.268Z,18.80
2023-03-13T07:15:11.024Z,15.68
2023-03-13T07:17:58.588Z,17.40
2023-03-13T07:20:44.502Z,17.98
2023-03-13T07:23:30.333Z,19.40
2023-03-13T07:26:16.817Z,20.40
2023-03-13T07:29:02.646Z,19.45
2023-03-13T07:31:48.329Z,20.63
2023-03-13T07:34:34.202Z,20.60
2023-03-13T07:37:20.022Z,21.20
2023-03-13T07:40:06.359Z,17.98
2023-03-13T07:42:52.377Z,17.80
2023-03-13T07:45:38.109Z,18.48
2023-03-13T07:48:32.177Z,18.17
2023-03-13T07:51:30.468Z,19.83
2023-03-13T07:54:22.880Z,15.02
2023-03-13T07:57:09.145Z,15.85
2023-03-13T07:59:55.025Z,14.23
2023-03-13T08:02:41.048Z,12.40
2023-03-13T08:05:26.728Z,13.48
2023-03-13T08:08:12.651Z,12.45
2023-03-13T08:11:01.624Z,12.68
2023-03-13T08:13:47.901Z,13.85
2023-03-13T08:16:35.246Z,13.10
2023-03-13T08:19:21.695Z,13.15
2023-03-13T08:22:07.549Z,11.95
2023-03-13T08:24:53.518Z,12.27
2023-03-13T08:27:39.403Z,12.40
2023-03-13T08:30:25.133Z,9.85
2023-03-13T08:33:11.182Z,9.60
2023-03-13T08:35:57.288Z,11.60
2023-03-13T08:38:46.023Z,11.07
2023-03-13T08:41:36.120Z,11.02
2023-03-13T08:44:21.953Z,10.25
2023-03-13T08:47:08.380Z,10.35
2023-03-13T08:49:55.393Z,13.38
2023-03-13T08:52:44.783Z,11.77
2023-03-13T08:55:30.766Z,9.38
2023-03-13T08:58:16.495Z,13.13
2023-03-13T09:01:05.144Z,12.95
2023-03-13T09:03:51.626Z,12.18
2023-03-13T09:06:38.539Z,11.18
2023-03-13T09:09:24.723Z,11.32
2023-03-13T09:12:24.521Z,10.35
2023-03-13T09:15:16.311Z,9.45
2023-03-13T09:18:02.003Z,9.52
2023-03-13T09:20:49.061Z,9.00
2023-03-13T09:23:35.342Z,8.10
2023-03-13T09:26:23.350Z,7.55
2023-03-13T09:29:10.339Z,7.28
2023-03-13T09:31:56.137Z,8.23
2023-03-13T09:34:41.926Z,7.45
2023-03-13T09:37:27.739Z,9.00
2023-03-13T09:40:16.317Z,7.97
2023-03-13T09:43:02.175Z,7.57
2023-03-13T09:45:49.972Z,7.50
2023-03-13T09:48:49.436Z,7.90
2023-03-13T09:51:38.296Z,6.68
2023-03-13T09:55:05.718Z,7.13
2023-03-13T09:58:26.867Z,6.07
2023-03-13T10:01:13.065Z,7.07
2023-03-13T10:04:12.945Z,6.80
2023-03-13T10:06:59.046Z,8.40
2023-03-13T10:09:44.891Z,9.02
2023-03-13T10:12:38.226Z,6.85
2023-03-13T10:15:30.120Z,6.80
2023-03-13T10:18:21.886Z,6.32
2023-03-13T10:21:16.394Z,8.38
2023-03-13T10:24:06.462Z,8.02
2023-03-13T10:26:52.312Z,7.25
2023-03-13T10:29:38.841Z,10.88
2023-03-13T10:32:24.909Z,9.75
2023-03-13T10:35:15.387Z,9.98
2023-03-13T10:38:14.107Z,13.27
2023-03-13T10:41:03.235Z,9.85
2023-03-13T10:43:54.725Z,10.30
2023-03-13T10:46:42.269Z,10.32
2023-03-13T10:49:29.248Z,7.93
2023-03-13T10:52:45.569Z,9.63
2023-03-13T10:55:31.668Z,9.25
2023-03-13T10:58:28.306Z,8.45
2023-03-13T11:01:29.046Z,8.65
2023-03-13T11:04:32.992Z,7.57
2023-03-13T11:07:30.959Z,6.82
2023-03-13T11:10:32.535Z,8.23
2023-03-13T11:13:36.532Z,6.45
2023-03-13T11:16:26.903Z,7.57
2023-03-13T11:19:21.964Z,6.95
2023-03-13T11:22:14.287Z,6.25
2023-03-13T11:25:32.446Z,7.50
2023-03-13T11:28:30.362Z,6.72
2023-03-13T11:31:25.155Z,6.63
2023-03-13T11:34:33.037Z,6.10
2023-03-13T11:37:21.892Z,7.43
2023-03-13T11:40:29.119Z,9.07
2023-03-13T11:43:30.500Z,8.32
2023-03-13T11:46:35.175Z,9.25
2023-03-13T11:49:45.597Z,9.38
2023-03-13T11:52:37.435Z,9.43
2023-03-13T11:55:41.569Z,8.03
2023-03-13T11:58:42.958Z,7.85
2023-03-13T12:01:56.184Z,6.75
2023-03-13T12:04:49.376Z,8.43
2023-03-13T12:07:44.603Z,7.60
2023-03-13T12:10:35.212Z,7.72
2023-03-13T12:13:29.629Z,6.60
2023-03-13T12:16:19.997Z,7.50
2023-03-13T12:19:06.101Z,5.65
2023-03-13T12:21:54.183Z,6.05
2023-03-13T12:25:10.806Z,7.32
2023-03-13T12:28:05.908Z,7.00
2023-03-13T12:31:30.774Z,6.85
2023-03-13T12:34:22.577Z,7.18
2023-03-13T12:37:18.726Z,6.15
2023-03-13T12:40:35.470Z,7.18
2023-03-13T12:43:28.981Z,5.25
2023-03-13T12:46:21.251Z,5.32
2023-03-13T12:49:39.664Z,6.20
2023-03-13T12:52:31.706Z,5.72
2023-03-13T12:55:56.437Z,4.97
2023-03-13T12:59:03.675Z,4.28
2023-03-13T13:01:56.506Z,4.57
2023-03-13T13:04:44.990Z,5.03
2023-03-13T13:07:32.866Z,5.30
2023-03-13T13:10:22.985Z,4.05
2023-03-13T13:13:15.269Z,4.38
2023-03-13T13:16:12.216Z,4.28
2023-03-13T13:19:23.494Z,4.18
2023-03-13T13:22:36.755Z,5.20
2023-03-13T13:25:33.857Z,4.40
2023-03-13T13:28:21.906Z,3.97
2023-03-13T13:31:45.114Z,4.18
2023-03-13T13:34:31.353Z,3.95
2023-03-13T13:37:23.629Z,4.82
2023-03-13T13:40:15.376Z,4.20
2023-03-13T13:43:05.837Z,5.07
2023-03-13T13:46:07.244Z,5.32
2023-03-13T13:49:15.896Z,5.28
2023-03-13T13:52:01.573Z,5.78
2023-03-13T13:54:47.302Z,5.63
2023-03-13T13:57:35.838Z,5.72
2023-03-13T14:00:25.391Z,5.65
2023-03-13T14:03:43.483Z,5.78
2023-03-13T14:06:32.303Z,6.50
2023-03-13T14:09:28.968Z,5.13
2023-03-13T14:12:32.618Z,5.15
2023-03-13T14:15:22.823Z,4.20
2023-03-13T14:18:29.068Z,5.07
2023-03-13T14:21:14.793Z,5.13
2023-03-13T14:24:00.527Z,7.35
2023-03-13T14:26:46.646Z,6.20
2023-03-13T14:29:32.654Z,5.68
2023-03-13T14:32:18.835Z,7.05
2023-03-13T14:35:06.228Z,6.20
2023-03-13T14:37:54.493Z,7.53
2023-03-13T14:40:40.485Z,5.97
2023-03-13T14:43:36.617Z,5.78
2023-03-13T14:46:34.627Z,6.00
2023-03-13T14:49:24.444Z,5.38
2023-03-13T14:52:22.029Z,4.78
2023-03-13T14:55:28.535Z,5.45
2023-03-13T14:58:20.580Z,5.07
2023-03-13T15:01:30.677Z,5.78
2023-03-13T15:04:17.085Z,5.70
2023-03-13T15:07:03.518Z,5.90
2023-03-13T15:09:50.425Z,5.07
2023-03-13T15:12:43.115Z,5.93
2023-03-13T15:15:28.912Z,6.35
2023-03-13T15:18:26.519Z,9.18
2023-03-13T15:21:18.313Z,8.20
2023-03-13T15:24:22.213Z,7.13
2023-03-13T15:27:15.727Z,7.22
2023-03-13T15:30:01.481Z,7.38
2023-03-13T15:32:48.058Z,7.47
2023-03-13T15:35:34.053Z,8.75
2023-03-13T15:38:22.663Z,8.55
2023-03-13T15:41:09.390Z,8.35
2023-03-13T15:43:57.026Z,8.57
2023-03-13T15:46:43.144Z,6.93
2023-03-13T15:49:29.231Z,6.93
2023-03-13T15:52:22.714Z,7.47
2023-03-13T15:55:11.194Z,7.32
2023-03-13T15:57:57.344Z,7.38
2023-03-13T16:00:44.076Z,7.68
2023-03-13T16:03:30.469Z,7.68
2023-03-13T16:06:28.188Z,8.75
2023-03-13T16:09:14.159Z,7.60
2023-03-13T16:12:00.304Z,9.48
2023-03-13T16:14:48.663Z,10.35
2023-03-13T16:17:35.083Z,11.63
2023-03-13T16:20:23.641Z,12.15
2023-03-13T16:23:09.594Z,12.35
2023-03-13T16:25:55.320Z,9.20
2023-03-13T16:28:41.105Z,9.30
2023-03-13T16:31:29.916Z,13.27
2023-03-13T16:34:15.781Z,12.85
2023-03-13T16:37:01.596Z,12.43
2023-03-13T16:39:48.414Z,11.65
2023-03-13T16:42:34.242Z,11.95
2023-03-13T16:45:20.181Z,12.32
2023-03-13T16:48:06.149Z,14.48
2023-03-13T16:50:52.165Z,16.55
2023-03-13T16:53:38.188Z,17.73
2023-03-13T16:56:33.915Z,17.95
2023-03-13T16:59:20.056Z,17.85
2023-03-13T17:02:14.058Z,14.10
2023-03-13T17:04:59.770Z,14.40
2023-03-13T17:07:48.037Z,14.70
2023-03-13T17:10:34.107Z,16.48
2023-03-13T17:13:20.551Z,19.38
2023-03-13T17:16:14.109Z,17.42
2023-03-13T17:19:00.364Z,17.30
2023-03-13T17:21:46.217Z,16.45
2023-03-13T17:24:32.372Z,92.85
2023-03-13T17:27:18.555Z,20.52
2023-03-13T17:30:19.049Z,15.40
2023-03-13T17:33:05.144Z,13.35
2023-03-13T17:35:51.041Z,10.05
2023-03-13T17:38:36.781Z,9.10
2023-03-13T17:41:25.992Z,8.02
2023-03-13T17:44:12.050Z,7.93
2023-03-13T17:46:58.023Z,8.10
2023-03-13T17:49:44.183Z,8.68
2023-03-13T17:52:30.492Z,7.18
2023-03-13T17:55:16.639Z,6.75
2023-03-13T17:58:02.622Z,5.97
2023-03-13T18:00:48.845Z,5.90
2023-03-13T18:03:34.802Z,6.43
2023-03-13T18:06:38.754Z,5.85
2023-03-13T18:09:25.342Z,5.47
2023-03-13T18:12:11.681Z,6.53
2023-03-13T18:14:57.689Z,9.38
2023-03-13T18:17:43.844Z,13.25
2023-03-13T18:20:31.562Z,8.90
2023-03-13T18:23:17.720Z,8.93
2023-03-13T18:26:20.601Z,12.73
2023-03-13T18:29:18.000Z,13.13
2023-03-13T18:32:03.723Z,16.33
2023-03-13T18:34:49.482Z,18.98
2023-03-13T18:37:35.826Z,18.88
2023-03-13T18:40:24.863Z,19.83
2023-03-13T18:43:11.001Z,36.60
2023-03-13T18:45:57.164Z,32.70
2023-03-13T18:48:43.461Z,24.65
2023-03-13T18:51:30.852Z,24.05
2023-03-13T18:54:17.146Z,23.23
2023-03-13T18:57:03.077Z,26.17
2023-03-13T18:59:48.990Z,22.10
2023-03-13T19:02:34.952Z,19.58
2023-03-13T19:05:20.749Z,22.15
2023-03-13T19:08:06.524Z,26.77
2023-03-13T19:10:52.524Z,26.70
2023-03-13T19:13:38.629Z,24.48
2023-03-13T19:16:27.543Z,28.92
2023-03-13T19:19:23.618Z,31.73
2023-03-13T19:22:13.576Z,33.47
2023-03-13T19:24:59.309Z,33.13
2023-03-13T19:27:45.876Z,35.08
2023-03-13T19:30:31.949Z,27.60
2023-03-13T19:33:17.681Z,21.23
2023-03-13T19:36:03.756Z,16.85
2023-03-13T19:38:49.932Z,17.67
2023-03-13T19:41:36.204Z,24.88
2023-03-13T19:44:22.438Z,19.92
2023-03-13T19:47:13.682Z,23.77
2023-03-13T19:50:00.446Z,27.73
2023-03-13T19:52:46.672Z,26.77
2023-03-13T19:55:32.733Z,19.58
2023-03-13T19:58:18.769Z,20.50
2023-03-13T20:01:15.121Z,24.02
2023-03-13T20:04:03.551Z,20.92
2023-03-13T20:06:49.525Z,19.30
2023-03-13T20:09:36.323Z,13.40
2023-03-13T20:12:22.719Z,10.57
2023-03-13T20:15:09.202Z,10.77
2023-03-13T20:17:55.384Z,16.48
2023-03-13T20:20:41.249Z,16.50
2023-03-13T20:23:27.016Z,15.13
2023-03-13T20:26:15.580Z,15.63
2023-03-13T20:29:01.575Z,15.50
2023-03-13T20:31:47.436Z,16.90
2023-03-13T20:34:34.010Z,18.33
2023-03-13T20:37:20.833Z,19.55
2023-03-13T20:40:08.818Z,22.08
2023-03-13T20:42:54.599Z,22.23
2023-03-13T20:45:40.431Z,24.20
2023-03-13T20:48:26.650Z,24.15
2023-03-13T20:51:13.251Z,23.67
2023-03-13T20:53:59.425Z,26.45
2023-03-13T20:56:45.368Z,26.33
2023-03-13T20:59:31.899Z,23.40
2023-03-13T21:02:18.269Z,18.58
2023-03-13T21:05:04.035Z,18.02
2023-03-13T21:07:50.213Z,18.23
2023-03-13T21:10:40.863Z,17.60
2023-03-13T21:13:26.989Z,17.88
2023-03-13T21:16:13.958Z,18.50
2023-03-13T21:18:59.961Z,18.30
2023-03-13T21:21:46.875Z,16.83
2023-03-13T21:24:33.759Z,15.82
2023-03-13T21:27:19.760Z,16.30
2023-03-13T21:30:07.564Z,16.90
2023-03-13T21:32:54.550Z,19.38
2023-03-13T21:35:40.720Z,17.83
2023-03-13T21:38:26.523Z,19.63
2023-03-13T21:41:18.094Z,25.83
2023-03-13T21:44:04.233Z,36.38
2023-03-13T21:46:51.771Z,43.08
2023-03-13T21:49:37.700Z,43.97
2023-03-13T21:52:23.619Z,42.55
2023-03-13T21:55:12.810Z,41.75
2023-03-13T21:57:58.894Z,46.85
2023-03-13T22:00:44.984Z,33.85
2023-03-13T22:03:31.951Z,26.52
2023-03-13T22:06:20.043Z,24.08
2023-03-13T22:09:07.757Z,23.65
2023-03-13T22:11:53.698Z,22.77
2023-03-13T22:14:39.387Z,22.95
2023-03-13T22:17:25.243Z,17.27
2023-03-13T22:20:11.929Z,17.20
2023-03-13T22:22:57.908Z,17.50
2023-03-13T22:25:43.978Z,18.80
2023-03-13T22:28:29.822Z,17.70
2023-03-13T22:31:15.584Z,16.55
2023-03-13T22:34:01.491Z,19.63
2023-03-13T22:36:47.369Z,17.23
2023-03-13T22:39:33.229Z,17.40
2023-03-13T22:42:19.052Z,17.73
2023-03-13T22:45:05.157Z,21.65
2023-03-13T22:47:51.235Z,18.80
2023-03-13T22:50:37.329Z,17.48
2023-03-13T22:53:22.995Z,19.05
2023-03-13T22:56:10.113Z,18.88
2023-03-13T22:58:56.211Z,18.33
2023-03-13T23:01:41.958Z,20.15
2023-03-13T23:04:27.968Z,19.98
2023-03-13T23:07:13.716Z,20.20
2023-03-13T23:09:59.620Z,20.20
2023-03-13T23:12:45.463Z,20.25
2023-03-13T23:15:43.026Z,19.60
2023-03-13T23:18:37.910Z,20.05
2023-03-13T23:21:24.072Z,23.38
2023-03-13T23:24:09.757Z,20.10
2023-03-13T23:26:55.837Z,18.52
2023-03-13T23:29:41.693Z,18.92
2023-03-13T23:32:28.424Z,20.80
2023-03-13T23:35:16.991Z,20.35
2023-03-13T23:38:02.912Z,19.48
2023-03-13T23:40:48.761Z,19.98
2023-03-13T23:43:35.232Z,20.02
2023-03-13T23:46:23.405Z,20.85
2023-03-13T23:49:09.156Z,20.55
2023-03-13T23:51:55.044Z,21.67
2023-03-13T23:54:41.050Z,19.98
2023-03-13T23:57:26.878Z,20.10
